Time,TemperatureF,DewpointF,PressureIn,WindDirection,WindDirectionDegrees,WindSpeedMPH,WindSpeedGustMPH,Humidity,HourlyPrecipIn,Conditions,Clouds,dailyrainin,SolarRadiationWatts/m^2,SoftwareType,DateUTC
2013-05-02 00:01:00,54.5,46.4,30.39,SE,146,0.0,0.0,74,0.00,,,0.00,0.00,VWS V14.01,2013-05-02 04:01:00,
2013-05-02 00:03:00,54.3,46.2,30.39,SSE,158,0.0,2.0,74,0.00,,,0.00,0.00,VWS V14.01,2013-05-02 04:03:00,
2013-05-02 00:08:00,54.2,46.5,30.39,South,170,0.0,3.0,75,0.00,,,0.00,0.00,VWS V14.01,2013-05-02 04:08:00,
2013-05-02 00:13:00,54.0,46.3,30.39,SSE,153,0.0,3.0,75,0.00,,,0.00,0.00,VWS V14.01,2013-05-02 04:13:00,
2013-05-02 00:18:00,53.9,46.2,30.39,SSE,157,0.0,1.0,75,0.00,,,0.00,0.00,VWS V14.01,2013-05-02 04:18:00,
2013-05-02 00:24:00,53.8,46.1,30.39,SSE,165,0.0,2.0,75,0.00,,,0.00,0.00,VWS V14.01,2013-05-02 04:24:00,
2013-05-02 00:29:00,53.7,46.0,30.39,South,188,0.0,1.0,75,0.00,,,0.00,0.00,VWS V14.01,2013-05-02 04:29:00,
2013-05-02 00:34:00,53.6,45.9,30.39,South,188,0.0,0.0,75,0.00,,,0.00,0.00,VWS V14.01,2013-05-02 04:34:00,
2013-05-02 00:39:00,53.5,46.1,30.39,South,188,0.0,0.0,76,0.00,,,0.00,0.00,VWS V14.01,2013-05-02 04:39:00,
2013-05-02 00:44:00,53.3,45.6,30.39,South,188,0.0,0.0,75,0.00,,,0.00,0.00,VWS V14.01,2013-05-02 04:44:00,
2013-05-02 00:49:00,53.2,45.8,30.39,South,188,0.0,0.0,76,0.00,,,0.00,0.00,VWS V14.01,2013-05-02 04:49:00,
2013-05-02 00:54:00,52.9,45.5,30.39,South,188,0.0,0.0,76,0.00,,,0.00,0.00,VWS V14.01,2013-05-02 04:54:00,
2013-05-02 00:59:00,52.7,45.4,30.39,South,188,0.0,0.0,76,0.00,,,0.00,0.00,VWS V14.01,2013-05-02 04:59:00,
2013-05-02 01:04:00,52.4,45.1,30.39,South,188,0.0,0.0,76,0.00,,,0.00,0.00,VWS V14.01,2013-05-02 05:04:00,
2013-05-02 01:09:00,52.2,45.2,30.39,South,188,0.0,0.0,77,0.00,,,0.00,0.00,VWS V14.01,2013-05-02 05:09:00,
2013-05-02 01:14:00,51.8,44.8,30.39,South,187,0.0,0.0,77,0.00,,,0.00,0.00,VWS V14.01,2013-05-02 05:14:00,
2013-05-02 01:19:00,51.6,44.6,30.39,South,188,0.0,0.0,77,0.00,,,0.00,0.00,VWS V14.01,2013-05-02 05:19:00,
2013-05-02 01:24:00,51.3,44.7,30.39,South,188,0.0,0.0,78,0.00,,,0.00,0.00,VWS V14.01,2013-05-02 05:24:00,
2013-05-02 01:30:00,51.0,45.1,30.38,South,188,0.0,2.0,80,0.00,,,0.00,0.00,VWS V14.01,2013-05-02 05:30:00,
2013-05-02 01:35:00,50.9,45.3,30.38,SSE,152,0.0,2.0,81,0.00,,,0.00,0.00,VWS V14.01,2013-05-02 05:35:00,
2013-05-02 01:40:00,50.7,45.1,30.38,SSE,153,0.0,1.0,81,0.00,,,0.00,0.00,VWS V14.01,2013-05-02 05:40:00,
2013-05-02 01:45:00,50.6,45.0,30.38,SSE,153,0.0,0.0,81,0.00,,,0.00,0.00,VWS V14.01,2013-05-02 05:45:00,
2013-05-02 01:50:00,50.6,45.0,30.38,SSE,153,0.0,0.0,81,0.00,,,0.00,0.00,VWS V14.01,2013-05-02 05:50:00,
2013-05-02 01:55:00,50.4,44.8,30.38,SSE,153,0.0,0.0,81,0.00,,,0.00,0.00,VWS V14.01,2013-05-02 05:55:00,
2013-05-02 02:00:00,50.3,44.7,30.38,SSE,153,0.0,0.0,81,0.00,,,0.00,0.00,VWS V14.01,2013-05-02 06:00:00,
2013-05-02 02:05:00,50.1,44.5,30.38,SSE,153,0.0,0.0,81,0.00,,,0.00,0.00,VWS V14.01,2013-05-02 06:05:00,
2013-05-02 02:10:00,49.9,44.3,30.37,SSE,153,0.0,0.0,81,0.00,,,0.00,0.00,VWS V14.01,2013-05-02 06:10:00,
2013-05-02 02:15:00,49.6,44.0,30.37,SSE,153,0.0,0.0,81,0.00,,,0.00,0.00,VWS V14.01,2013-05-02 06:15:00,
2013-05-02 02:20:00,49.4,44.1,30.37,SSE,153,0.0,0.0,82,0.00,,,0.00,0.00,VWS V14.01,2013-05-02 06:20:00,
2013-05-02 02:25:00,49.2,44.0,30.37,SSE,152,0.0,0.0,82,0.00,,,0.00,0.00,VWS V14.01,2013-05-02 06:25:00,
2013-05-02 02:30:00,48.9,44.0,30.37,SSE,152,0.0,0.0,83,0.00,,,0.00,0.00,VWS V14.01,2013-05-02 06:30:00,
2013-05-02 02:35:00,48.6,43.7,30.37,SSE,152,0.0,0.0,83,0.00,,,0.00,0.00,VWS V14.01,2013-05-02 06:35:00,
2013-05-02 02:40:00,48.4,43.5,30.37,SSE,153,0.0,0.0,83,0.00,,,0.00,0.00,VWS V14.01,2013-05-02 06:40:00,
2013-05-02 02:46:00,48.2,43.6,30.37,SSE,153,0.0,0.0,84,0.00,,,0.00,0.00,VWS V14.01,2013-05-02 06:46:00,
2013-05-02 02:51:00,47.9,43.3,30.37,SSE,152,0.0,0.0,84,0.00,,,0.00,0.00,VWS V14.01,2013-05-02 06:51:00,
2013-05-02 02:56:00,47.8,43.5,30.37,SSE,153,0.0,0.0,85,0.00,,,0.00,0.00,VWS V14.01,2013-05-02 06:56:00,
2013-05-02 03:01:00,47.6,43.6,30.37,SSE,153,0.0,0.0,86,0.00,,,0.00,0.00,VWS V14.01,2013-05-02 07:01:00,
2013-05-02 03:06:00,47.4,43.4,30.37,SSE,153,0.0,0.0,86,0.00,,,0.00,0.00,VWS V14.01,2013-05-02 07:06:00,
2013-05-02 03:11:00,47.4,43.7,30.36,SSE,153,0.0,0.0,87,0.00,,,0.00,0.00,VWS V14.01,2013-05-02 07:11:00,
2013-05-02 03:16:00,47.3,43.6,30.36,SSE,153,0.0,0.0,87,0.00,,,0.00,0.00,VWS V14.01,2013-05-02 07:16:00,
2013-05-02 03:21:00,47.3,43.9,30.36,SSE,152,0.0,0.0,88,0.00,,,0.00,0.00,VWS V14.01,2013-05-02 07:21:00,
2013-05-02 03:26:00,47.2,43.8,30.36,SSE,153,0.0,0.0,88,0.00,,,0.00,0.00,VWS V14.01,2013-05-02 07:26:00,
2013-05-02 03:31:00,47.1,43.4,30.37,SSE,153,0.0,0.0,87,0.00,,,0.00,0.00,VWS V14.01,2013-05-02 07:31:00,
2013-05-02 03:36:00,46.9,43.2,30.37,SSE,153,0.0,0.0,87,0.00,,,0.00,0.00,VWS V14.01,2013-05-02 07:36:00,
2013-05-02 03:41:00,46.8,43.4,30.37,SSE,153,0.0,0.0,88,0.00,,,0.00,0.00,VWS V14.01,2013-05-02 07:41:00,
2013-05-02 03:47:00,46.6,43.2,30.37,SSE,152,0.0,0.0,88,0.00,,,0.00,0.00,VWS V14.01,2013-05-02 07:47:00,
2013-05-02 03:52:00,46.5,43.1,30.37,SSE,153,0.0,0.0,88,0.00,,,0.00,0.00,VWS V14.01,2013-05-02 07:52:00,
2013-05-02 03:57:00,46.4,43.0,30.37,SSE,153,0.0,0.0,88,0.00,,,0.00,0.00,VWS V14.01,2013-05-02 07:57:00,
2013-05-02 04:02:00,46.2,42.8,30.37,SSE,153,0.0,0.0,88,0.00,,,0.00,0.00,VWS V14.01,2013-05-02 08:02:00,
2013-05-02 04:07:00,46.1,42.8,30.37,SSE,152,0.0,0.0,88,0.00,,,0.00,0.00,VWS V14.01,2013-05-02 08:07:00,
2013-05-02 04:12:00,46.0,42.7,30.37,SSE,153,0.0,0.0,88,0.00,,,0.00,0.00,VWS V14.01,2013-05-02 08:12:00,
2013-05-02 04:17:00,45.8,42.8,30.37,SSE,153,0.0,0.0,89,0.00,,,0.00,0.00,VWS V14.01,2013-05-02 08:17:00,
2013-05-02 04:22:00,45.6,42.5,30.37,SSE,152,0.0,0.0,89,0.00,,,0.00,0.00,VWS V14.01,2013-05-02 08:22:00,
2013-05-02 04:27:00,45.5,42.5,30.37,SSE,152,0.0,0.0,89,0.00,,,0.00,0.00,VWS V14.01,2013-05-02 08:27:00,
2013-05-02 04:32:00,45.3,42.3,30.37,SSE,153,0.0,0.0,89,0.00,,,0.00,0.00,VWS V14.01,2013-05-02 08:32:00,
2013-05-02 04:37:00,45.0,42.0,30.37,SSE,153,0.0,0.0,89,0.00,,,0.00,0.00,VWS V14.01,2013-05-02 08:37:00,
2013-05-02 04:42:00,44.8,41.5,30.37,SSE,153,0.0,0.0,88,0.00,,,0.00,0.00,VWS V14.01,2013-05-02 08:42:00,
2013-05-02 04:48:00,44.5,41.2,30.36,SSE,152,0.0,0.0,88,0.00,,,0.00,0.00,VWS V14.01,2013-05-02 08:48:00,
2013-05-02 04:53:00,44.3,41.0,30.36,SSE,153,0.0,0.0,88,0.00,,,0.00,0.00,VWS V14.01,2013-05-02 08:53:00,
2013-05-02 04:58:00,44.0,40.7,30.36,SSE,153,0.0,0.0,88,0.00,,,0.00,0.00,VWS V14.01,2013-05-02 08:58:00,
2013-05-02 05:03:00,43.7,40.4,30.36,SSE,153,0.0,0.0,88,0.00,,,0.00,0.00,VWS V14.01,2013-05-02 09:03:00,
2013-05-02 05:08:00,43.5,40.5,30.37,SSE,153,0.0,0.0,89,0.00,,,0.00,0.00,VWS V14.01,2013-05-02 09:08:00,
2013-05-02 05:13:00,43.4,40.7,30.36,SSE,153,0.0,0.0,90,0.00,,,0.00,0.00,VWS V14.01,2013-05-02 09:13:00,
2013-05-02 05:18:00,43.2,40.5,30.37,SSE,153,0.0,0.0,90,0.00,,,0.00,0.00,VWS V14.01,2013-05-02 09:18:00,
2013-05-02 05:23:00,43.0,40.3,30.37,SSE,153,0.0,0.0,90,0.00,,,0.00,0.00,VWS V14.01,2013-05-02 09:23:00,
2013-05-02 05:28:00,42.8,40.1,30.37,SSE,153,0.0,0.0,90,0.00,,,0.00,0.00,VWS V14.01,2013-05-02 09:28:00,
2013-05-02 05:33:00,42.6,39.9,30.36,SSE,153,0.0,0.0,90,0.00,,,0.00,0.00,VWS V14.01,2013-05-02 09:33:00,
2013-05-02 05:38:00,42.4,39.7,30.37,SSE,153,0.0,1.0,90,0.00,,,0.00,0.00,VWS V14.01,2013-05-02 09:38:00,
2013-05-02 05:43:00,42.1,39.4,30.36,SSE,153,0.0,0.0,90,0.00,,,0.00,0.00,VWS V14.01,2013-05-02 09:43:00,
2013-05-02 05:49:00,41.9,39.2,30.37,SSE,153,0.0,0.0,90,0.00,,,0.00,0.00,VWS V14.01,2013-05-02 09:49:00,
2013-05-02 05:54:00,41.7,39.0,30.37,SSE,153,0.0,0.0,90,0.00,,,0.00,0.00,VWS V14.01,2013-05-02 09:54:00,
2013-05-02 05:59:00,41.7,39.3,30.37,SSE,152,0.0,0.0,91,0.00,,,0.00,0.00,VWS V14.01,2013-05-02 09:59:00,
2013-05-02 06:04:00,41.6,39.2,30.37,SSE,153,0.0,0.0,91,0.00,,,0.00,0.00,VWS V14.01,2013-05-02 10:04:00,
2013-05-02 06:09:00,41.6,39.5,30.37,SSE,152,0.0,0.0,92,0.00,,,0.00,0.00,VWS V14.01,2013-05-02 10:09:00,
2013-05-02 06:14:00,41.6,39.5,30.37,SSE,153,0.0,0.0,92,0.00,,,0.00,5.00,VWS V14.01,2013-05-02 10:14:00,
2013-05-02 06:19:00,41.5,39.3,30.38,SSE,153,0.0,0.0,92,0.00,,,0.00,7.00,VWS V14.01,2013-05-02 10:19:00,
2013-05-02 06:24:00,41.4,39.2,30.38,SSE,152,0.0,0.0,92,0.00,,,0.00,9.00,VWS V14.01,2013-05-02 10:24:00,
2013-05-02 06:29:00,41.3,39.2,30.38,SSE,153,0.0,0.0,92,0.00,,,0.00,12.00,VWS V14.01,2013-05-02 10:29:00,
2013-05-02 06:35:00,41.3,39.2,30.38,SSE,153,0.0,0.0,92,0.00,,,0.00,14.00,VWS V14.01,2013-05-02 10:35:00,
2013-05-02 06:40:00,41.4,39.5,30.38,SSE,153,0.0,0.0,93,0.00,,,0.00,16.00,VWS V14.01,2013-05-02 10:40:00,
2013-05-02 06:45:00,41.6,39.7,30.38,SSE,153,0.0,0.0,93,0.00,,,0.00,19.00,VWS V14.01,2013-05-02 10:45:00,
2013-05-02 06:50:00,41.7,39.8,30.38,SSE,153,0.0,0.0,93,0.00,,,0.00,19.00,VWS V14.01,2013-05-02 10:50:00,
2013-05-02 06:55:00,41.8,40.2,30.38,SSE,152,0.0,0.0,94,0.00,,,0.00,21.00,VWS V14.01,2013-05-02 10:55:00,
2013-05-02 07:00:00,41.9,40.3,30.38,SSE,153,0.0,0.0,94,0.00,,,0.00,23.00,VWS V14.01,2013-05-02 11:00:00,
2013-05-02 07:05:00,41.9,40.3,30.38,SSE,153,0.0,0.0,94,0.00,,,0.00,28.00,VWS V14.01,2013-05-02 11:05:00,
2013-05-02 07:10:00,42.0,40.4,30.38,SSE,153,0.0,0.0,94,0.00,,,0.00,40.00,VWS V14.01,2013-05-02 11:10:00,
2013-05-02 07:15:00,42.3,41.0,30.38,SSE,153,0.0,0.0,95,0.00,,,0.00,100.00,VWS V14.01,2013-05-02 11:15:00,
2013-05-02 07:20:00,42.7,41.4,30.38,SSE,153,0.0,0.0,95,0.00,,,0.00,116.00,VWS V14.01,2013-05-02 11:20:00,
2013-05-02 07:25:00,43.2,41.9,30.38,SSE,153,0.0,0.0,95,0.00,,,0.00,116.00,VWS V14.01,2013-05-02 11:25:00,
2013-05-02 07:30:00,43.6,42.5,30.38,SSE,153,0.0,0.0,96,0.00,,,0.00,113.00,VWS V14.01,2013-05-02 11:30:00,
2013-05-02 07:35:00,44.0,42.9,30.38,SSE,152,0.0,0.0,96,0.00,,,0.00,109.00,VWS V14.01,2013-05-02 11:35:00,
2013-05-02 07:40:00,44.3,43.2,30.39,SSE,153,0.0,0.0,96,0.00,,,0.00,116.00,VWS V14.01,2013-05-02 11:40:00,
2013-05-02 07:45:00,45.0,43.9,30.39,SSE,153,0.0,0.0,96,0.00,,,0.00,86.00,VWS V14.01,2013-05-02 11:45:00,
2013-05-02 07:50:00,45.5,44.4,30.38,SSE,153,0.0,0.0,96,0.00,,,0.00,90.00,VWS V14.01,2013-05-02 11:50:00,
2013-05-02 07:55:00,46.1,45.0,30.39,SSE,153,0.0,1.0,96,0.00,,,0.00,125.00,VWS V14.01,2013-05-02 11:55:00,
2013-05-02 08:00:00,46.5,45.4,30.39,SSE,153,0.0,0.0,96,0.00,,,0.00,160.00,VWS V14.01,2013-05-02 12:00:00,
2013-05-02 08:05:00,47.2,46.1,30.39,SSE,152,0.0,1.0,96,0.00,,,0.00,134.00,VWS V14.01,2013-05-02 12:05:00,
2013-05-02 08:10:00,47.8,46.7,30.39,SSE,153,0.0,0.0,96,0.00,,,0.00,162.00,VWS V14.01,2013-05-02 12:10:00,
2013-05-02 08:15:00,48.4,47.0,30.39,SSE,153,0.0,1.0,95,0.00,,,0.00,179.00,VWS V14.01,2013-05-02 12:15:00,
2013-05-02 08:20:00,49.1,47.5,30.40,SSE,153,0.0,0.0,94,0.00,,,0.00,204.00,VWS V14.01,2013-05-02 12:20:00,
2013-05-02 08:25:00,49.9,48.0,30.39,SSE,153,0.0,1.0,93,0.00,,,0.00,230.00,VWS V14.01,2013-05-02 12:25:00,
2013-05-02 08:30:00,50.7,48.2,30.40,SSE,153,0.0,1.0,91,0.00,,,0.00,246.00,VWS V14.01,2013-05-02 12:30:00,
2013-05-02 08:35:00,51.5,48.4,30.40,SSE,153,0.0,1.0,89,0.00,,,0.00,276.00,VWS V14.01,2013-05-02 12:35:00,
2013-05-02 08:40:00,52.2,48.5,30.40,East,83,0.0,1.0,87,0.00,,,0.00,292.00,VWS V14.01,2013-05-02 12:40:00,
2013-05-02 08:45:00,52.9,48.5,30.40,East,83,0.0,1.0,85,0.00,,,0.00,294.00,VWS V14.01,2013-05-02 12:45:00,
2013-05-02 08:50:00,53.5,48.5,30.40,East,83,0.0,1.0,83,0.00,,,0.00,299.00,VWS V14.01,2013-05-02 12:50:00,
2013-05-02 08:55:00,53.9,47.9,30.40,SSW,194,0.0,2.0,80,0.00,,,0.00,308.00,VWS V14.01,2013-05-02 12:55:00,
2013-05-02 09:00:00,54.4,48.0,30.40,SSE,148,4.0,7.0,79,0.00,,,0.00,323.00,VWS V14.01,2013-05-02 13:00:00,
2013-05-02 09:06:00,54.7,47.6,30.40,SE,136,0.0,1.0,77,0.00,,,0.00,346.00,VWS V14.01,2013-05-02 13:06:00,
2013-05-02 09:11:00,55.1,47.7,30.40,SSW,196,2.0,3.0,76,0.00,,,0.00,364.00,VWS V14.01,2013-05-02 13:11:00,
2013-05-02 09:16:00,55.6,48.5,30.39,South,186,0.0,1.0,77,0.00,,,0.00,381.00,VWS V14.01,2013-05-02 13:16:00,
2013-05-02 09:21:00,55.8,48.0,30.39,SSE,155,1.0,1.0,75,0.00,,,0.00,401.00,VWS V14.01,2013-05-02 13:21:00,
2013-05-02 09:26:00,56.1,48.3,30.40,SSE,155,0.0,0.0,75,0.00,,,0.00,424.00,VWS V14.01,2013-05-02 13:26:00,
2013-05-02 09:31:00,56.5,48.3,30.40,SE,144,0.0,1.0,74,0.00,,,0.00,445.00,VWS V14.01,2013-05-02 13:31:00,
2013-05-02 09:36:00,56.9,48.0,30.39,North,9,0.0,1.0,72,0.00,,,0.00,473.00,VWS V14.01,2013-05-02 13:36:00,
2013-05-02 09:41:00,57.3,48.4,30.40,NNE,14,0.0,2.0,72,0.00,,,0.00,499.00,VWS V14.01,2013-05-02 13:41:00,
2013-05-02 09:46:00,57.7,48.4,30.39,NNW,331,0.0,3.0,71,0.00,,,0.00,529.00,VWS V14.01,2013-05-02 13:46:00,
2013-05-02 09:52:00,57.9,48.6,30.40,East,97,0.0,4.0,71,0.00,,,0.00,559.00,VWS V14.01,2013-05-02 13:52:00,
2013-05-02 09:57:00,58.2,47.7,30.39,North,9,0.0,2.0,68,0.00,,,0.00,582.00,VWS V14.01,2013-05-02 13:57:00,
2013-05-02 10:02:00,58.7,49.3,30.39,NNE,24,0.0,2.0,71,0.00,,,0.00,594.00,VWS V14.01,2013-05-02 14:02:00,
2013-05-02 10:07:00,59.0,49.2,30.40,SE,143,4.0,6.0,70,0.00,,,0.00,591.00,VWS V14.01,2013-05-02 14:07:00,
2013-05-02 10:12:00,59.0,48.9,30.40,NE,42,2.0,8.0,69,0.00,,,0.00,575.00,VWS V14.01,2013-05-02 14:12:00,
2013-05-02 10:17:00,59.0,48.5,30.40,NNE,18,0.0,2.0,68,0.00,,,0.00,554.00,VWS V14.01,2013-05-02 14:17:00,
2013-05-02 10:22:00,59.2,48.3,30.39,ENE,68,0.0,1.0,67,0.00,,,0.00,534.00,VWS V14.01,2013-05-02 14:22:00,
2013-05-02 10:27:00,59.4,48.0,30.39,ENE,59,0.0,3.0,66,0.00,,,0.00,520.00,VWS V14.01,2013-05-02 14:27:00,
2013-05-02 10:32:00,59.8,48.8,30.39,NE,40,0.0,4.0,67,0.00,,,0.00,513.00,VWS V14.01,2013-05-02 14:32:00,
2013-05-02 10:37:00,60.0,48.6,30.39,NNE,15,0.0,5.0,66,0.00,,,0.00,512.00,VWS V14.01,2013-05-02 14:37:00,
2013-05-02 10:43:00,60.4,47.8,30.39,SSE,158,0.0,1.0,63,0.00,,,0.00,522.00,VWS V14.01,2013-05-02 14:43:00,
2013-05-02 10:48:00,60.8,49.0,30.39,SE,146,0.0,1.0,65,0.00,,,0.00,545.00,VWS V14.01,2013-05-02 14:48:00,
2013-05-02 10:53:00,61.1,48.8,30.39,SE,137,2.0,2.0,64,0.00,,,0.00,568.00,VWS V14.01,2013-05-02 14:53:00,
2013-05-02 10:58:00,61.3,49.0,30.39,SSE,152,0.0,3.0,64,0.00,,,0.00,601.00,VWS V14.01,2013-05-02 14:58:00,
2013-05-02 11:03:00,61.5,47.5,30.38,SSE,153,0.0,4.0,60,0.00,,,0.00,654.00,VWS V14.01,2013-05-02 15:03:00,
2013-05-02 11:08:00,61.6,49.3,30.38,SE,132,0.0,6.0,64,0.00,,,0.00,686.00,VWS V14.01,2013-05-02 15:08:00,
2013-05-02 11:13:00,62.0,48.0,30.38,ESE,107,0.0,4.0,60,0.00,,,0.00,715.00,VWS V14.01,2013-05-02 15:13:00,
2013-05-02 11:18:00,62.0,49.3,30.38,ENE,72,1.0,2.0,63,0.00,,,0.00,726.00,VWS V14.01,2013-05-02 15:18:00,
2013-05-02 11:23:00,62.6,49.4,30.38,ENE,61,2.0,4.0,62,0.00,,,0.00,708.00,VWS V14.01,2013-05-02 15:23:00,
2013-05-02 11:28:00,62.9,48.8,30.38,NNW,329,0.0,4.0,60,0.00,,,0.00,680.00,VWS V14.01,2013-05-02 15:28:00,
2013-05-02 11:33:00,62.9,49.7,30.38,North,5,3.0,3.0,62,0.00,,,0.00,659.00,VWS V14.01,2013-05-02 15:33:00,
2013-05-02 11:38:00,63.2,49.1,30.38,NE,37,0.0,6.0,60,0.00,,,0.00,635.00,VWS V14.01,2013-05-02 15:38:00,
2013-05-02 11:44:00,63.2,48.7,30.38,NE,51,0.0,9.0,59,0.00,,,0.00,619.00,VWS V14.01,2013-05-02 15:44:00,
2013-05-02 11:49:00,63.9,50.6,30.38,ESE,111,0.0,9.0,62,0.00,,,0.00,624.00,VWS V14.01,2013-05-02 15:49:00,
2013-05-02 11:54:00,63.8,48.8,30.37,North,9,2.0,3.0,58,0.00,,,0.00,643.00,VWS V14.01,2013-05-02 15:54:00,
2013-05-02 11:59:00,64.2,49.1,30.37,ENE,59,0.0,5.0,58,0.00,,,0.00,696.00,VWS V14.01,2013-05-02 15:59:00,
2013-05-02 12:04:00,64.3,49.2,30.37,NNE,25,1.0,8.0,58,0.00,,,0.00,756.00,VWS V14.01,2013-05-02 16:04:00,
2013-05-02 12:09:00,64.4,48.8,30.37,ESE,111,0.0,6.0,57,0.00,,,0.00,814.00,VWS V14.01,2013-05-02 16:09:00,
2013-05-02 12:14:00,64.7,49.6,30.37,SE,139,0.0,5.0,58,0.00,,,0.00,844.00,VWS V14.01,2013-05-02 16:14:00,
2013-05-02 12:19:00,64.5,50.3,30.37,SSE,159,1.0,4.0,60,0.00,,,0.00,831.00,VWS V14.01,2013-05-02 16:19:00,
2013-05-02 12:24:00,64.8,49.2,30.37,SE,146,3.0,5.0,57,0.00,,,0.00,803.00,VWS V14.01,2013-05-02 16:24:00,
2013-05-02 12:29:00,64.7,48.7,30.37,SE,136,3.0,8.0,56,0.00,,,0.00,807.00,VWS V14.01,2013-05-02 16:29:00,
2013-05-02 12:34:00,65.1,49.5,30.36,SE,127,0.0,3.0,57,0.00,,,0.00,824.00,VWS V14.01,2013-05-02 16:34:00,
2013-05-02 12:39:00,65.2,48.6,30.36,SSE,158,0.0,4.0,55,0.00,,,0.00,861.00,VWS V14.01,2013-05-02 16:39:00,
2013-05-02 12:45:00,65.3,50.2,30.36,SSE,160,0.0,7.0,58,0.00,,,0.00,888.00,VWS V14.01,2013-05-02 16:45:00,
2013-05-02 12:50:00,65.3,49.2,30.36,SE,137,2.0,7.0,56,0.00,,,0.00,912.00,VWS V14.01,2013-05-02 16:50:00,
2013-05-02 12:55:00,65.4,49.3,30.36,SSE,148,4.0,8.0,56,0.00,,,0.00,914.00,VWS V14.01,2013-05-02 16:55:00,
2013-05-02 13:00:00,65.6,48.0,30.36,SSE,160,3.0,11.0,53,0.00,,,0.00,918.00,VWS V14.01,2013-05-02 17:00:00,
2013-05-02 13:05:00,65.8,49.2,30.36,SE,124,3.0,5.0,55,0.00,,,0.00,919.00,VWS V14.01,2013-05-02 17:05:00,
2013-05-02 13:10:00,66.0,49.4,30.35,SE,130,3.0,7.0,55,0.00,,,0.00,918.00,VWS V14.01,2013-05-02 17:10:00,
2013-05-02 13:15:00,66.2,51.0,30.36,SE,146,0.0,5.0,58,0.00,,,0.00,921.00,VWS V14.01,2013-05-02 17:15:00,
2013-05-02 13:20:00,66.5,49.8,30.36,SSE,155,1.0,7.0,55,0.00,,,0.00,923.00,VWS V14.01,2013-05-02 17:20:00,
2013-05-02 13:25:00,66.4,49.3,30.35,SSE,164,2.0,8.0,54,0.00,,,0.00,921.00,VWS V14.01,2013-05-02 17:25:00,
2013-05-02 13:30:00,66.5,48.9,30.36,SSE,147,1.0,8.0,53,0.00,,,0.00,919.00,VWS V14.01,2013-05-02 17:30:00,
2013-05-02 13:35:00,66.6,48.4,30.35,SSE,154,1.0,8.0,52,0.00,,,0.00,921.00,VWS V14.01,2013-05-02 17:35:00,
2013-05-02 13:40:00,66.6,49.0,30.35,SE,143,10.0,10.0,53,0.00,,,0.00,919.00,VWS V14.01,2013-05-02 17:40:00,
2013-05-02 13:45:00,66.7,47.0,30.35,SSE,165,3.0,9.0,49,0.00,,,0.00,916.00,VWS V14.01,2013-05-02 17:45:00,
2013-05-02 13:50:00,66.7,49.0,30.35,SE,140,0.0,2.0,53,0.00,,,0.00,912.00,VWS V14.01,2013-05-02 17:50:00,
2013-05-02 13:55:00,66.8,48.1,30.35,SE,140,1.0,1.0,51,0.00,,,0.00,904.00,VWS V14.01,2013-05-02 17:55:00,
2013-05-02 14:01:00,67.2,49.0,30.35,SSE,154,1.0,3.0,52,0.00,,,0.00,902.00,VWS V14.01,2013-05-02 18:01:00,
2013-05-02 14:06:00,67.4,51.7,30.35,SE,130,0.0,0.0,57,0.00,,,0.00,902.00,VWS V14.01,2013-05-02 18:06:00,
2013-05-02 14:11:00,67.7,50.5,30.35,ESE,105,1.0,4.0,54,0.00,,,0.00,895.00,VWS V14.01,2013-05-02 18:11:00,
2013-05-02 14:16:00,68.1,48.2,30.35,SSE,157,2.0,2.0,49,0.00,,,0.00,895.00,VWS V14.01,2013-05-02 18:16:00,
2013-05-02 14:21:00,68.0,49.2,30.34,SSE,159,3.0,5.0,51,0.00,,,0.00,891.00,VWS V14.01,2013-05-02 18:21:00,
2013-05-02 14:26:00,68.1,48.8,30.34,ESE,102,3.0,5.0,50,0.00,,,0.00,884.00,VWS V14.01,2013-05-02 18:26:00,
2013-05-02 14:31:00,68.1,49.8,30.34,ESE,123,1.0,2.0,52,0.00,,,0.00,882.00,VWS V14.01,2013-05-02 18:31:00,
2013-05-02 14:36:00,68.2,49.4,30.34,SSW,203,6.0,8.0,51,0.00,,,0.00,877.00,VWS V14.01,2013-05-02 18:36:00,
2013-05-02 14:41:00,68.3,50.0,30.34,NE,49,2.0,3.0,52,0.00,,,0.00,868.00,VWS V14.01,2013-05-02 18:41:00,
2013-05-02 14:46:00,68.9,50.6,30.34,East,80,0.0,3.0,52,0.00,,,0.00,860.00,VWS V14.01,2013-05-02 18:46:00,
2013-05-02 14:51:00,69.2,49.8,30.34,SSE,150,1.0,3.0,50,0.00,,,0.00,856.00,VWS V14.01,2013-05-02 18:51:00,
2013-05-02 14:57:00,69.4,50.0,30.34,SE,128,1.0,3.0,50,0.00,,,0.00,844.00,VWS V14.01,2013-05-02 18:57:00,
2013-05-02 15:02:00,69.5,49.5,30.34,ESE,104,0.0,1.0,49,0.00,,,0.00,838.00,VWS V14.01,2013-05-02 19:02:00,
2013-05-02 15:07:00,69.7,49.7,30.33,NNW,334,0.0,3.0,49,0.00,,,0.00,831.00,VWS V14.01,2013-05-02 19:07:00,
2013-05-02 15:12:00,69.9,50.4,30.33,SSE,147,4.0,7.0,50,0.00,,,0.00,824.00,VWS V14.01,2013-05-02 19:12:00,
2013-05-02 15:17:00,69.6,48.5,30.33,SE,124,1.0,8.0,47,0.00,,,0.00,816.00,VWS V14.01,2013-05-02 19:17:00,
2013-05-02 15:22:00,69.4,48.3,30.33,SSW,199,3.0,11.0,47,0.00,,,0.00,805.00,VWS V14.01,2013-05-02 19:22:00,
2013-05-02 15:27:00,69.7,49.2,30.32,SE,128,6.0,7.0,48,0.00,,,0.00,798.00,VWS V14.01,2013-05-02 19:27:00,
2013-05-02 15:32:00,70.1,49.5,30.33,SSE,150,3.0,13.0,48,0.00,,,0.00,793.00,VWS V14.01,2013-05-02 19:32:00,
2013-05-02 15:37:00,70.2,50.2,30.32,SE,128,0.0,9.0,49,0.00,,,0.00,779.00,VWS V14.01,2013-05-02 19:37:00,
2013-05-02 15:42:00,70.4,47.5,30.32,SE,138,7.0,10.0,44,0.00,,,0.00,768.00,VWS V14.01,2013-05-02 19:42:00,
2013-05-02 15:48:00,70.3,47.4,30.32,SSE,150,7.0,9.0,44,0.00,,,0.00,759.00,VWS V14.01,2013-05-02 19:48:00,
2013-05-02 15:53:00,70.1,47.8,30.32,SSE,153,5.0,10.0,45,0.00,,,0.00,749.00,VWS V14.01,2013-05-02 19:53:00,
2013-05-02 15:58:00,70.2,47.9,30.31,South,169,1.0,6.0,45,0.00,,,0.00,737.00,VWS V14.01,2013-05-02 19:58:00,
2013-05-02 16:03:00,70.6,48.8,30.31,SE,136,1.0,9.0,46,0.00,,,0.00,728.00,VWS V14.01,2013-05-02 20:03:00,
2013-05-02 16:08:00,70.7,48.3,30.31,SE,142,7.0,10.0,45,0.00,,,0.00,715.00,VWS V14.01,2013-05-02 20:08:00,
2013-05-02 16:13:00,70.8,49.0,30.31,NNE,16,0.0,5.0,46,0.00,,,0.00,701.00,VWS V14.01,2013-05-02 20:13:00,
2013-05-02 16:18:00,71.0,48.6,30.31,SE,140,4.0,7.0,45,0.00,,,0.00,689.00,VWS V14.01,2013-05-02 20:18:00,
2013-05-02 16:23:00,70.9,47.9,30.30,SSE,163,4.0,8.0,44,0.00,,,0.00,675.00,VWS V14.01,2013-05-02 20:23:00,
2013-05-02 16:28:00,70.9,49.1,30.30,SE,137,5.0,8.0,46,0.00,,,0.00,664.00,VWS V14.01,2013-05-02 20:28:00,
2013-05-02 16:33:00,70.9,48.5,30.30,SSE,168,2.0,4.0,45,0.00,,,0.00,649.00,VWS V14.01,2013-05-02 20:33:00,
2013-05-02 16:38:00,71.1,48.7,30.30,ESE,117,4.0,8.0,45,0.00,,,0.00,635.00,VWS V14.01,2013-05-02 20:38:00,
2013-05-02 16:43:00,71.0,47.4,30.30,ESE,120,10.0,10.0,43,0.00,,,0.00,624.00,VWS V14.01,2013-05-02 20:43:00,
2013-05-02 16:48:00,70.8,47.8,30.30,SE,134,1.0,5.0,44,0.00,,,0.00,608.00,VWS V14.01,2013-05-02 20:48:00,
2013-05-02 16:54:00,70.6,47.0,30.29,SE,128,1.0,10.0,43,0.00,,,0.00,592.00,VWS V14.01,2013-05-02 20:54:00,
2013-05-02 16:59:00,70.7,47.7,30.29,SE,124,2.0,7.0,44,0.00,,,0.00,578.00,VWS V14.01,2013-05-02 20:59:00,
2013-05-02 17:04:00,70.6,47.0,30.29,SSE,155,0.0,11.0,43,0.00,,,0.00,564.00,VWS V14.01,2013-05-02 21:04:00,
2013-05-02 17:09:00,70.7,47.1,30.29,SE,140,3.0,11.0,43,0.00,,,0.00,548.00,VWS V14.01,2013-05-02 21:09:00,
2013-05-02 17:14:00,70.6,47.0,30.29,ESE,119,10.0,10.0,43,0.00,,,0.00,534.00,VWS V14.01,2013-05-02 21:14:00,
2013-05-02 17:19:00,70.5,47.6,30.29,SSE,159,2.0,8.0,44,0.00,,,0.00,519.00,VWS V14.01,2013-05-02 21:19:00,
2013-05-02 17:24:00,70.4,46.9,30.29,ESE,105,12.0,12.0,43,0.00,,,0.00,501.00,VWS V14.01,2013-05-02 21:24:00,
2013-05-02 17:29:00,70.3,47.4,30.29,SSE,149,0.0,11.0,44,0.00,,,0.00,487.00,VWS V14.01,2013-05-02 21:29:00,
2013-05-02 17:34:00,70.3,46.8,30.29,SE,130,3.0,11.0,43,0.00,,,0.00,475.00,VWS V14.01,2013-05-02 21:34:00,
2013-05-02 17:39:00,70.2,47.3,30.29,SE,146,4.0,7.0,44,0.00,,,0.00,459.00,VWS V14.01,2013-05-02 21:39:00,
2013-05-02 17:44:00,70.2,46.7,30.29,South,171,4.0,12.0,43,0.00,,,0.00,441.00,VWS V14.01,2013-05-02 21:44:00,
2013-05-02 17:49:00,70.1,47.2,30.29,SE,145,1.0,10.0,44,0.00,,,0.00,427.00,VWS V14.01,2013-05-02 21:49:00,
2013-05-02 17:54:00,70.1,47.8,30.28,SE,129,1.0,6.0,45,0.00,,,0.00,408.00,VWS V14.01,2013-05-02 21:54:00,
2013-05-02 18:00:00,70.2,49.0,30.28,SSE,150,5.0,12.0,47,0.00,,,0.00,392.00,VWS V14.01,2013-05-02 22:00:00,
2013-05-02 18:05:00,70.1,48.4,30.28,South,182,1.0,8.0,46,0.00,,,0.00,374.00,VWS V14.01,2013-05-02 22:05:00,
2013-05-02 18:10:00,70.1,49.0,30.28,SSE,150,0.0,5.0,47,0.00,,,0.00,360.00,VWS V14.01,2013-05-02 22:10:00,
2013-05-02 18:15:00,70.0,47.7,30.28,SE,134,0.0,9.0,45,0.00,,,0.00,343.00,VWS V14.01,2013-05-02 22:15:00,
2013-05-02 18:20:00,69.9,47.6,30.28,ESE,114,4.0,6.0,45,0.00,,,0.00,330.00,VWS V14.01,2013-05-02 22:20:00,
2013-05-02 18:25:00,69.9,47.6,30.28,South,180,2.0,5.0,45,0.00,,,0.00,309.00,VWS V14.01,2013-05-02 22:25:00,
2013-05-02 18:30:00,69.7,47.4,30.28,South,183,5.0,8.0,45,0.00,,,0.00,292.00,VWS V14.01,2013-05-02 22:30:00,
2013-05-02 18:35:00,69.5,47.2,30.28,South,170,4.0,6.0,45,0.00,,,0.00,278.00,VWS V14.01,2013-05-02 22:35:00,
2013-05-02 18:40:00,69.4,47.2,30.28,SSE,148,0.0,5.0,45,0.00,,,0.00,244.00,VWS V14.01,2013-05-02 22:40:00,
2013-05-02 18:45:00,69.2,47.0,30.27,SE,143,1.0,9.0,45,0.00,,,0.00,221.00,VWS V14.01,2013-05-02 22:45:00,
2013-05-02 18:50:00,68.9,46.1,30.28,SSE,157,1.0,11.0,44,0.00,,,0.00,165.00,VWS V14.01,2013-05-02 22:50:00,
2013-05-02 18:55:00,68.5,46.3,30.28,SSE,147,6.0,6.0,45,0.00,,,0.00,174.00,VWS V14.01,2013-05-02 22:55:00,
2013-05-02 19:00:00,68.2,46.1,30.28,SSE,159,2.0,2.0,45,0.00,,,0.00,158.00,VWS V14.01,2013-05-02 23:00:00,
2013-05-02 19:06:00,67.9,46.4,30.28,SSE,156,4.0,5.0,46,0.00,,,0.00,149.00,VWS V14.01,2013-05-02 23:06:00,
2013-05-02 19:11:00,67.5,46.0,30.28,SSE,159,2.0,5.0,46,0.00,,,0.00,128.00,VWS V14.01,2013-05-02 23:11:00,
2013-05-02 19:16:00,67.3,46.4,30.28,SE,141,1.0,3.0,47,0.00,,,0.00,123.00,VWS V14.01,2013-05-02 23:16:00,
2013-05-02 19:21:00,67.0,46.1,30.28,SE,138,4.0,4.0,47,0.00,,,0.00,77.00,VWS V14.01,2013-05-02 23:21:00,
2013-05-02 19:26:00,66.7,45.8,30.28,SSE,150,0.0,1.0,47,0.00,,,0.00,60.00,VWS V14.01,2013-05-02 23:26:00,
2013-05-02 19:31:00,66.5,46.2,30.28,SSE,168,6.0,6.0,48,0.00,,,0.00,40.00,VWS V14.01,2013-05-02 23:31:00,
2013-05-02 19:36:00,66.0,46.3,30.28,ESE,123,5.0,6.0,49,0.00,,,0.00,21.00,VWS V14.01,2013-05-02 23:36:00,
2013-05-02 19:41:00,65.6,46.5,30.28,SE,143,1.0,2.0,50,0.00,,,0.00,16.00,VWS V14.01,2013-05-02 23:41:00,
2013-05-02 19:46:00,65.1,46.5,30.28,SSE,156,0.0,1.0,51,0.00,,,0.00,12.00,VWS V14.01,2013-05-02 23:46:00,
2013-05-02 19:51:00,64.7,46.7,30.28,SSE,153,0.0,2.0,52,0.00,,,0.00,11.00,VWS V14.01,2013-05-02 23:51:00,
2013-05-02 19:56:00,64.3,46.8,30.28,SSE,156,0.0,5.0,53,0.00,,,0.00,7.00,VWS V14.01,2013-05-02 23:56:00,
2013-05-02 20:02:00,63.9,47.0,30.28,SSE,150,0.0,2.0,54,0.00,,,0.00,0.00,VWS V14.01,2013-05-03 00:02:00,
2013-05-02 20:07:00,63.5,47.1,30.28,SSE,150,0.0,1.0,55,0.00,,,0.00,0.00,VWS V14.01,2013-05-03 00:07:00,
2013-05-02 20:12:00,63.2,47.3,30.28,SSE,150,0.0,0.0,56,0.00,,,0.00,0.00,VWS V14.01,2013-05-03 00:12:00,
2013-05-02 20:17:00,62.9,47.0,30.28,SSE,150,0.0,0.0,56,0.00,,,0.00,0.00,VWS V14.01,2013-05-03 00:17:00,
2013-05-02 20:22:00,62.6,47.2,30.28,SSE,149,1.0,1.0,57,0.00,,,0.00,0.00,VWS V14.01,2013-05-03 00:22:00,
2013-05-02 20:27:00,62.2,46.8,30.28,SSE,149,0.0,0.0,57,0.00,,,0.00,0.00,VWS V14.01,2013-05-03 00:27:00,
2013-05-02 20:32:00,61.8,46.9,30.28,SSE,149,0.0,1.0,58,0.00,,,0.00,0.00,VWS V14.01,2013-05-03 00:32:00,
2013-05-02 20:37:00,61.4,47.0,30.28,SSE,149,0.0,0.0,59,0.00,,,0.00,0.00,VWS V14.01,2013-05-03 00:37:00,
2013-05-02 20:42:00,61.1,47.1,30.29,SSE,149,0.0,0.0,60,0.00,,,0.00,0.00,VWS V14.01,2013-05-03 00:42:00,
2013-05-02 20:47:00,60.7,46.8,30.29,SSE,149,0.0,0.0,60,0.00,,,0.00,0.00,VWS V14.01,2013-05-03 00:47:00,
2013-05-02 20:52:00,60.4,46.9,30.29,SSE,149,0.0,0.0,61,0.00,,,0.00,0.00,VWS V14.01,2013-05-03 00:52:00,
2013-05-02 20:58:00,60.0,46.5,30.29,SSE,149,0.0,0.0,61,0.00,,,0.00,0.00,VWS V14.01,2013-05-03 00:58:00,
2013-05-02 21:03:00,59.5,46.1,30.29,SSE,149,0.0,0.0,61,0.00,,,0.00,0.00,VWS V14.01,2013-05-03 01:03:00,
2013-05-02 21:08:00,59.0,46.4,30.29,SSE,149,0.0,0.0,63,0.00,,,0.00,0.00,VWS V14.01,2013-05-03 01:08:00,
2013-05-02 21:13:00,58.9,46.3,30.29,SSE,149,0.0,0.0,63,0.00,,,0.00,0.00,VWS V14.01,2013-05-03 01:13:00,
2013-05-02 21:18:00,58.5,46.4,30.29,SSE,149,0.0,0.0,64,0.00,,,0.00,0.00,VWS V14.01,2013-05-03 01:18:00,
2013-05-02 21:23:00,58.1,46.4,30.29,SSE,149,0.0,0.0,65,0.00,,,0.00,0.00,VWS V14.01,2013-05-03 01:23:00,
2013-05-02 21:28:00,57.8,46.1,30.29,SSE,149,0.0,0.0,65,0.00,,,0.00,0.00,VWS V14.01,2013-05-03 01:28:00,
2013-05-02 21:33:00,57.4,45.8,30.28,SSE,149,0.0,0.0,65,0.00,,,0.00,0.00,VWS V14.01,2013-05-03 01:33:00,
2013-05-02 21:38:00,57.0,45.4,30.28,SSE,149,0.0,0.0,65,0.00,,,0.00,0.00,VWS V14.01,2013-05-03 01:38:00,
2013-05-02 21:43:00,56.6,45.4,30.29,SSE,149,0.0,0.0,66,0.00,,,0.00,0.00,VWS V14.01,2013-05-03 01:43:00,
2013-05-02 21:48:00,56.3,45.9,30.28,SSE,149,0.0,0.0,68,0.00,,,0.00,0.00,VWS V14.01,2013-05-03 01:48:00,
2013-05-02 21:54:00,56.0,46.0,30.28,SSE,149,0.0,0.0,69,0.00,,,0.00,0.00,VWS V14.01,2013-05-03 01:54:00,
2013-05-02 21:59:00,55.7,46.1,30.29,SSE,149,0.0,0.0,70,0.00,,,0.00,0.00,VWS V14.01,2013-05-03 01:59:00,
2013-05-02 22:04:00,55.4,45.8,30.29,SSE,149,0.0,0.0,70,0.00,,,0.00,0.00,VWS V14.01,2013-05-03 02:04:00,
2013-05-02 22:09:00,55.1,45.9,30.29,SSE,149,0.0,0.0,71,0.00,,,0.00,0.00,VWS V14.01,2013-05-03 02:09:00,
2013-05-02 22:14:00,54.8,46.0,30.29,SSE,149,0.0,0.0,72,0.00,,,0.00,0.00,VWS V14.01,2013-05-03 02:14:00,
2013-05-02 22:19:00,54.5,45.7,30.29,SSE,149,0.0,0.0,72,0.00,,,0.00,0.00,VWS V14.01,2013-05-03 02:19:00,
2013-05-02 22:24:00,54.1,45.3,30.29,SSE,149,0.0,0.0,72,0.00,,,0.00,0.00,VWS V14.01,2013-05-03 02:24:00,
2013-05-02 22:29:00,53.8,45.0,30.29,SSE,149,0.0,0.0,72,0.00,,,0.00,0.00,VWS V14.01,2013-05-03 02:29:00,
2013-05-02 22:34:00,53.5,44.7,30.29,SSE,149,0.0,0.0,72,0.00,,,0.00,0.00,VWS V14.01,2013-05-03 02:34:00,
2013-05-02 22:39:00,53.2,45.1,30.29,SSE,149,0.0,0.0,74,0.00,,,0.00,0.00,VWS V14.01,2013-05-03 02:39:00,
2013-05-02 22:44:00,53.0,45.3,30.29,SSE,149,0.0,0.0,75,0.00,,,0.00,0.00,VWS V14.01,2013-05-03 02:44:00,
2013-05-02 22:49:00,52.8,45.5,30.29,SSE,149,0.0,0.0,76,0.00,,,0.00,0.00,VWS V14.01,2013-05-03 02:49:00,
2013-05-02 22:55:00,52.6,45.3,30.28,SSE,149,0.0,0.0,76,0.00,,,0.00,0.00,VWS V14.01,2013-05-03 02:55:00,
2013-05-02 23:00:00,52.4,45.4,30.28,SSE,149,0.0,0.0,77,0.00,,,0.00,0.00,VWS V14.01,2013-05-03 03:00:00,
2013-05-02 23:05:00,52.2,45.2,30.28,SSE,149,0.0,0.0,77,0.00,,,0.00,0.00,VWS V14.01,2013-05-03 03:05:00,
2013-05-02 23:10:00,52.0,45.0,30.28,SSE,149,0.0,0.0,77,0.00,,,0.00,0.00,VWS V14.01,2013-05-03 03:10:00,
2013-05-02 23:15:00,51.8,45.2,30.28,SSE,149,0.0,0.0,78,0.00,,,0.00,0.00,VWS V14.01,2013-05-03 03:15:00,
2013-05-02 23:20:00,51.7,45.1,30.28,SSE,149,0.0,0.0,78,0.00,,,0.00,0.00,VWS V14.01,2013-05-03 03:20:00,
2013-05-02 23:25:00,51.5,44.9,30.28,SSE,149,0.0,0.0,78,0.00,,,0.00,0.00,VWS V14.01,2013-05-03 03:25:00,
2013-05-02 23:30:00,51.4,45.1,30.28,SSE,149,0.0,0.0,79,0.00,,,0.00,0.00,VWS V14.01,2013-05-03 03:30:00,
2013-05-02 23:35:00,51.1,44.8,30.28,SSE,149,0.0,0.0,79,0.00,,,0.00,0.00,VWS V14.01,2013-05-03 03:35:00,
2013-05-02 23:40:00,50.9,44.6,30.28,SSE,149,0.0,0.0,79,0.00,,,0.00,0.00,VWS V14.01,2013-05-03 03:40:00,
2013-05-02 23:45:00,50.8,44.5,30.28,SSE,149,0.0,0.0,79,0.00,,,0.00,0.00,VWS V14.01,2013-05-03 03:45:00,
2013-05-02 23:50:00,50.6,44.7,30.28,SSE,149,0.0,0.0,80,0.00,,,0.00,0.00,VWS V14.01,2013-05-03 03:50:00,
2013-05-02 23:55:00,50.5,44.6,30.28,SSE,149,0.0,0.0,80,0.00,,,0.00,0.00,VWS V14.01,2013-05-03 03:55:00,